createdAt,value
2023-03-02T00:01:02.478Z,99265.31
2023-03-02T00:03:08.863Z,99267.09
2023-03-02T00:05:14.494Z,99262.06
2023-03-02T00:07:22.650Z,99260.28
2023-03-02T00:09:27.685Z,99261.78
2023-03-02T00:11:35.474Z,99261.56
2023-03-02T00:13:41.462Z,99253.38
2023-03-02T00:15:46.377Z,99250.22
2023-03-02T00:17:53.874Z,99248.81
2023-03-02T00:20:07.300Z,99248.53
2023-03-02T00:22:12.313Z,99246.97
2023-03-02T00:24:17.485Z,99243.72
2023-03-02T00:26:23.202Z,99242.88
2023-03-02T00:28:28.650Z,99246.38
2023-03-02T00:30:33.560Z,99247.28
2023-03-02T00:32:38.507Z,99243.25
2023-03-02T00:34:46.010Z,99239.72
2023-03-02T00:36:51.721Z,99241.97
2023-03-02T00:38:57.475Z,99240.22
2023-03-02T00:41:02.429Z,99241.53
2023-03-02T00:43:07.620Z,99236.53
2023-03-02T00:45:13.267Z,99237.41
2023-03-02T00:47:18.624Z,99230.13
2023-03-02T00:49:24.151Z,99231.47
2023-03-02T00:51:32.021Z,99229.00
2023-03-02T00:53:38.447Z,99231.59
2023-03-02T00:55:43.769Z,99223.28
2023-03-02T00:57:55.231Z,99223.22
2023-03-02T01:00:05.804Z,99222.66
2023-03-02T01:04:22.675Z,99221.44
2023-03-02T01:06:27.828Z,99220.53
2023-03-02T01:08:38.087Z,99221.44
2023-03-02T01:10:44.285Z,99219.75
2023-03-02T01:12:49.154Z,99218.16
2023-03-02T01:14:54.797Z,99213.56
2023-03-02T01:17:00.403Z,99204.00
2023-03-02T01:19:05.769Z,99202.31
2023-03-02T01:21:15.171Z,99196.34
2023-03-02T01:25:29.440Z,99199.78
2023-03-02T01:27:35.307Z,99200.56
2023-03-02T01:29:41.096Z,99206.16
2023-03-02T01:31:46.370Z,99195.63
2023-03-02T01:33:55.340Z,99198.31
2023-03-02T01:36:00.275Z,99190.09
2023-03-02T01:38:06.045Z,99194.97
2023-03-02T01:40:15.846Z,99191.28
2023-03-02T01:42:23.518Z,99184.81
2023-03-02T01:44:45.194Z,99181.00
2023-03-02T01:46:50.104Z,99187.44
2023-03-02T01:49:01.149Z,99188.22
2023-03-02T01:51:31.125Z,99186.53
2023-03-02T01:53:46.745Z,99185.06
2023-03-02T01:55:53.198Z,99182.69
2023-03-02T01:58:02.075Z,99187.53
2023-03-02T02:00:11.677Z,99187.53
2023-03-02T02:02:19.793Z,99190.38
2023-03-02T02:04:25.993Z,99188.75
2023-03-02T02:06:37.863Z,99194.22
2023-03-02T02:08:43.174Z,99189.09
2023-03-02T02:10:49.547Z,99188.72
2023-03-02T02:12:54.404Z,99196.00
2023-03-02T02:15:03.219Z,99182.09
2023-03-02T02:17:08.782Z,99185.47
2023-03-02T02:19:29.556Z,99187.03
2023-03-02T02:21:34.873Z,99188.50
2023-03-02T02:23:49.418Z,99177.56
2023-03-02T02:26:29.003Z,99179.97
2023-03-02T02:28:38.897Z,99178.28
2023-03-02T02:30:45.383Z,99177.97
2023-03-02T02:32:52.263Z,99173.75
2023-03-02T02:35:05.553Z,99179.31
2023-03-02T02:37:17.688Z,99174.31
2023-03-02T02:39:32.909Z,99180.78
2023-03-02T02:41:43.752Z,99179.00
2023-03-02T02:43:49.405Z,99172.22
2023-03-02T02:45:59.151Z,99168.63
2023-03-02T02:48:04.370Z,99167.06
2023-03-02T02:50:19.753Z,99171.91
2023-03-02T02:52:28.744Z,99166.84
2023-03-02T02:54:36.471Z,99167.63
2023-03-02T02:56:45.881Z,99174.47
2023-03-02T02:58:54.678Z,99172.56
2023-03-02T03:01:01.741Z,99166.75
2023-03-02T03:03:31.960Z,99167.44
2023-03-02T03:05:39.522Z,99163.22
2023-03-02T03:07:45.305Z,99163.31
2023-03-02T03:10:00.775Z,99166.75
2023-03-02T03:12:18.904Z,99160.84
2023-03-02T03:14:30.171Z,99164.31
2023-03-02T03:16:38.555Z,99167.31
2023-03-02T03:18:46.351Z,99156.81
2023-03-02T03:20:52.446Z,99153.47
2023-03-02T03:22:59.380Z,99151.78
2023-03-02T03:25:05.689Z,99151.47
2023-03-02T03:27:17.669Z,99146.53
2023-03-02T03:29:26.407Z,99140.94
2023-03-02T03:31:35.467Z,99150.09
2023-03-02T03:33:41.137Z,99145.06
2023-03-02T03:35:46.516Z,99145.19
2023-03-02T03:37:51.873Z,99138.91
2023-03-02T03:39:58.493Z,99130.84
2023-03-02T03:42:04.079Z,99133.38
2023-03-02T03:44:12.434Z,99136.91
2023-03-02T03:46:21.652Z,99146.59
2023-03-02T03:48:27.295Z,99133.00
2023-03-02T03:50:33.082Z,99139.94
2023-03-02T03:52:38.323Z,99145.84
2023-03-02T03:54:54.177Z,99139.06
2023-03-02T03:56:59.544Z,99138.59
2023-03-02T03:59:08.941Z,99143.31
2023-03-02T04:01:22.425Z,99130.84
2023-03-02T04:03:29.492Z,99135.25
2023-03-02T04:05:35.064Z,99134.25
2023-03-02T04:07:43.667Z,99131.69
2023-03-02T04:09:49.379Z,99130.72
2023-03-02T04:11:57.947Z,99133.38
2023-03-02T04:14:04.589Z,99133.16
2023-03-02T04:16:10.389Z,99133.16
2023-03-02T04:18:18.526Z,99141.22
2023-03-02T04:20:25.488Z,99141.56
2023-03-02T04:22:32.435Z,99146.44
2023-03-02T04:24:37.846Z,99136.59
2023-03-02T04:28:52.713Z,99136.91
2023-03-02T04:31:00.352Z,99135.53
2023-03-02T04:33:05.503Z,99137.63
2023-03-02T04:35:16.004Z,99134.28
2023-03-02T04:37:21.015Z,99143.97
2023-03-02T04:39:27.379Z,99131.69
2023-03-02T04:41:32.839Z,99136.16
2023-03-02T04:43:37.746Z,99133.84
2023-03-02T04:45:43.395Z,99138.38
2023-03-02T04:47:48.786Z,99133.78
2023-03-02T04:49:56.656Z,99137.63
2023-03-02T04:52:04.521Z,99149.69
2023-03-02T04:54:15.438Z,99136.97
2023-03-02T04:56:21.237Z,99146.72
2023-03-02T04:58:26.115Z,99147.50
2023-03-02T05:00:34.395Z,99146.63
2023-03-02T05:02:39.752Z,99149.97
2023-03-02T05:04:48.380Z,99147.19
2023-03-02T05:06:53.645Z,99153.31
2023-03-02T05:09:02.086Z,99157.47
2023-03-02T05:11:09.091Z,99151.91
2023-03-02T05:13:14.104Z,99150.81
2023-03-02T05:15:19.488Z,99146.78
2023-03-02T05:17:24.371Z,99153.28
2023-03-02T05:19:30.575Z,99154.50
2023-03-02T05:21:35.696Z,99150.00
2023-03-02T05:23:40.878Z,99156.88
2023-03-02T05:25:48.328Z,99157.00
2023-03-02T05:27:54.746Z,99159.53
2023-03-02T05:29:59.661Z,99161.72
2023-03-02T05:32:04.621Z,99159.19
2023-03-02T05:34:13.892Z,99161.47
2023-03-02T05:36:20.731Z,99162.97
2023-03-02T05:38:27.561Z,99158.03
2023-03-02T05:40:32.517Z,99161.28
2023-03-02T05:42:40.511Z,99162.97
2023-03-02T05:44:46.370Z,99166.13
2023-03-02T05:46:51.627Z,99165.22
2023-03-02T05:48:56.738Z,99167.72
2023-03-02T05:51:02.010Z,99162.63
2023-03-02T05:53:07.379Z,99165.50
2023-03-02T05:55:13.715Z,99163.69
2023-03-02T05:57:18.607Z,99167.91
2023-03-02T05:59:26.521Z,99170.38
2023-03-02T06:01:31.757Z,99168.50
2023-03-02T06:03:36.795Z,99167.91
2023-03-02T06:05:42.512Z,99166.31
2023-03-02T06:07:48.359Z,99181.22
2023-03-02T06:09:53.433Z,99179.47
2023-03-02T06:11:59.375Z,99175.31
2023-03-02T06:16:13.907Z,99181.66
2023-03-02T06:18:18.852Z,99191.53
2023-03-02T06:20:24.200Z,99187.03
2023-03-02T06:22:29.594Z,99190.38
2023-03-02T06:24:34.518Z,99187.91
2023-03-02T06:26:39.964Z,99190.53
2023-03-02T06:28:52.594Z,99193.97
2023-03-02T06:31:03.669Z,99197.50
2023-03-02T06:33:11.412Z,99203.53
2023-03-02T06:35:17.884Z,99196.41
2023-03-02T06:37:24.152Z,99196.22
2023-03-02T06:39:30.150Z,99198.09
2023-03-02T06:41:36.014Z,99194.56
2023-03-02T06:45:51.005Z,99184.44
2023-03-02T06:47:56.089Z,99184.25
2023-03-02T06:50:04.664Z,99188.38
2023-03-02T06:52:11.029Z,99181.00
2023-03-02T06:54:17.688Z,99182.00
2023-03-02T06:56:23.221Z,99181.25
2023-03-02T06:58:31.283Z,99182.97
2023-03-02T07:00:37.084Z,99181.66
2023-03-02T07:02:42.477Z,99182.00
2023-03-02T07:04:47.429Z,99179.69
2023-03-02T07:06:54.930Z,99184.03
2023-03-02T07:09:00.135Z,99179.19
2023-03-02T07:11:10.696Z,99175.28
2023-03-02T07:13:16.642Z,99181.38
2023-03-02T07:15:22.988Z,99177.25
2023-03-02T07:17:29.125Z,99171.09
2023-03-02T07:19:34.044Z,99176.31
2023-03-02T07:21:39.501Z,99174.13
2023-03-02T07:23:46.985Z,99171.88
2023-03-02T07:25:55.099Z,99172.13
2023-03-02T07:28:00.885Z,99172.19
2023-03-02T07:30:10.485Z,99169.38
2023-03-02T07:32:16.856Z,99160.22
2023-03-02T07:34:21.793Z,99156.34
2023-03-02T07:36:26.936Z,99161.44
2023-03-02T07:38:32.539Z,99155.94
2023-03-02T07:40:43.372Z,99153.78
2023-03-02T07:42:49.794Z,99155.53
2023-03-02T07:44:56.308Z,99149.06
2023-03-02T07:47:01.341Z,99147.41
2023-03-02T07:49:07.099Z,99149.16
2023-03-02T07:51:12.061Z,99152.63
2023-03-02T07:53:17.899Z,99154.47
2023-03-02T07:55:22.889Z,99147.19
2023-03-02T07:57:30.392Z,99155.50
2023-03-02T07:59:35.308Z,99155.66
2023-03-02T08:01:40.276Z,99155.75
2023-03-02T08:03:45.184Z,99151.69
2023-03-02T08:05:50.073Z,99146.84
2023-03-02T08:07:55.463Z,99141.91
2023-03-02T08:10:00.988Z,99147.78
2023-03-02T08:12:07.694Z,99151.22
2023-03-02T08:14:15.205Z,99150.47
2023-03-02T08:16:20.664Z,99148.19
2023-03-02T08:18:25.786Z,99149.84
2023-03-02T08:20:30.791Z,99147.56
2023-03-02T08:22:35.710Z,99160.97
2023-03-02T08:24:41.842Z,99146.03
2023-03-02T08:26:47.214Z,99154.31
2023-03-02T08:28:52.179Z,99150.31
2023-03-02T08:31:04.518Z,99144.53
2023-03-02T08:33:09.710Z,99142.16
2023-03-02T08:35:15.515Z,99138.19
2023-03-02T08:37:20.853Z,99139.03
2023-03-02T08:39:30.251Z,99130.00
2023-03-02T08:41:35.684Z,99137.53
2023-03-02T08:43:41.003Z,99132.69
2023-03-02T08:45:46.055Z,99128.59
2023-03-02T08:47:56.862Z,99129.50
2023-03-02T08:50:01.832Z,99129.56
2023-03-02T08:52:07.278Z,99132.13
2023-03-02T08:54:14.180Z,99129.72
2023-03-02T08:56:21.578Z,99136.41
2023-03-02T08:58:26.497Z,99123.94
2023-03-02T09:00:31.819Z,99124.00
2023-03-02T09:02:36.734Z,99124.88
2023-03-02T09:04:44.266Z,99119.94
2023-03-02T09:06:49.297Z,99122.41
2023-03-02T09:08:54.766Z,99114.13
2023-03-02T09:10:59.666Z,99112.47
2023-03-02T09:13:06.843Z,99119.13
2023-03-02T09:15:13.675Z,99110.81
2023-03-02T09:17:18.787Z,99108.31
2023-03-02T09:19:24.067Z,99107.50
2023-03-02T09:21:31.957Z,99109.16
2023-03-02T09:23:38.200Z,99112.50
2023-03-02T09:25:45.275Z,99105.81
2023-03-02T09:27:51.658Z,99114.13
2023-03-02T09:29:56.611Z,99114.94
2023-03-02T09:32:02.283Z,99109.94
2023-03-02T09:34:07.732Z,99117.38
2023-03-02T09:36:24.246Z,99115.72
2023-03-02T09:38:31.727Z,99110.69
2023-03-02T09:40:46.425Z,99108.97
2023-03-02T09:43:21.593Z,99105.63
2023-03-02T09:46:17.108Z,99099.84
2023-03-02T09:48:38.593Z,99092.16
2023-03-02T09:50:58.345Z,99095.56
2023-03-02T09:53:38.591Z,99092.16
2023-03-02T09:55:46.135Z,99093.72
2023-03-02T09:57:55.245Z,99083.63
2023-03-02T10:00:18.332Z,99082.72
2023-03-02T10:02:31.298Z,99085.34
2023-03-02T10:04:47.604Z,99078.59
2023-03-02T10:07:02.368Z,99076.91
2023-03-02T10:09:13.657Z,99075.19
2023-03-02T10:11:29.584Z,99080.22
2023-03-02T10:13:45.967Z,99081.81
2023-03-02T10:16:12.247Z,99077.44
2023-03-02T10:18:25.113Z,99071.53
2023-03-02T10:20:36.397Z,99069.00
2023-03-02T10:22:50.480Z,99068.19
2023-03-02T10:25:10.857Z,99067.34
2023-03-02T10:27:26.219Z,99071.38
2023-03-02T10:29:46.512Z,99062.78
2023-03-02T10:31:58.725Z,99063.47
2023-03-02T10:34:05.090Z,99061.75
2023-03-02T10:36:24.736Z,99061.78
2023-03-02T10:38:32.199Z,99068.31
2023-03-02T10:40:47.341Z,99074.16
2023-03-02T10:42:52.563Z,99063.25
2023-03-02T10:45:04.148Z,99060.50
2023-03-02T10:47:10.994Z,99053.84
2023-03-02T10:49:31.713Z,99063.00
2023-03-02T10:51:37.896Z,99058.59
2023-03-02T10:53:42.750Z,99048.50
2023-03-02T10:55:53.952Z,99049.97
2023-03-02T10:58:06.486Z,99045.75
2023-03-02T11:00:24.342Z,99048.00
2023-03-02T11:02:30.531Z,99041.31
2023-03-02T11:04:35.464Z,99040.53
2023-03-02T11:06:40.365Z,99041.59
2023-03-02T11:08:45.257Z,99034.03
2023-03-02T11:11:01.054Z,99040.44
2023-03-02T11:13:20.592Z,99031.78
2023-03-02T11:15:30.086Z,99033.97
2023-03-02T11:17:39.384Z,99030.13
2023-03-02T11:19:44.901Z,99022.38
2023-03-02T11:21:59.408Z,99023.78
2023-03-02T11:24:14.105Z,99021.91
2023-03-02T11:26:26.526Z,99017.84
2023-03-02T11:28:46.549Z,99014.28
2023-03-02T11:30:54.109Z,99010.72
2023-03-02T11:33:05.139Z,98996.66
2023-03-02T11:35:17.540Z,99006.13
2023-03-02T11:37:26.292Z,99014.56
2023-03-02T11:39:54.629Z,99007.59
2023-03-02T11:42:03.086Z,99001.13
2023-03-02T11:44:18.974Z,98995.22
2023-03-02T11:46:30.616Z,98994.59
2023-03-02T11:48:41.999Z,98998.41
2023-03-02T11:50:59.921Z,98989.91
2023-03-02T11:53:10.602Z,98990.22
2023-03-02T11:55:23.349Z,98986.78
2023-03-02T11:57:38.589Z,98980.03
2023-03-02T11:59:44.413Z,98976.00
2023-03-02T12:01:54.088Z,98977.91
2023-03-02T12:04:11.925Z,98981.69
2023-03-02T12:06:38.567Z,98978.88
2023-03-02T12:08:46.018Z,98972.94
2023-03-02T12:11:01.968Z,98972.81
2023-03-02T12:13:20.534Z,98965.13
2023-03-02T12:15:44.374Z,98975.13
2023-03-02T12:17:49.280Z,98971.69
2023-03-02T12:19:57.440Z,98972.72
2023-03-02T12:22:09.074Z,98964.84
2023-03-02T12:24:28.480Z,98957.72
2023-03-02T12:26:38.955Z,98963.03
2023-03-02T12:28:46.421Z,98956.16
2023-03-02T12:31:05.116Z,98951.06
2023-03-02T12:33:23.334Z,98952.91
2023-03-02T12:35:29.064Z,98949.66
2023-03-02T12:37:45.564Z,98941.81
2023-03-02T12:40:28.041Z,98947.03
2023-03-02T12:43:03.420Z,98932.09
2023-03-02T12:45:27.082Z,98928.25
2023-03-02T12:47:33.205Z,98915.38
2023-03-02T12:49:53.959Z,98920.72
2023-03-02T12:52:01.231Z,98910.03
2023-03-02T12:54:08.450Z,98908.72
2023-03-02T12:56:23.535Z,98907.44
2023-03-02T12:58:32.912Z,98907.88
2023-03-02T13:00:40.403Z,98906.41
2023-03-02T13:02:50.857Z,98896.94
2023-03-02T13:04:57.918Z,98892.84
2023-03-02T13:07:03.193Z,98894.03
2023-03-02T13:09:08.261Z,98893.09
2023-03-02T13:11:14.082Z,98886.47
2023-03-02T13:13:21.775Z,98892.84
2023-03-02T13:15:26.886Z,98891.19
2023-03-02T13:17:35.987Z,98887.38
2023-03-02T13:19:41.162Z,98882.06
2023-03-02T13:21:46.532Z,98880.47
2023-03-02T13:23:54.792Z,98878.91
2023-03-02T13:26:02.518Z,98879.53
2023-03-02T13:28:10.072Z,98877.16
2023-03-02T13:30:26.582Z,98869.75
2023-03-02T13:32:43.472Z,98888.28
2023-03-02T13:34:51.796Z,98877.88
2023-03-02T13:36:57.620Z,98867.41
2023-03-02T13:39:03.796Z,98881.84
2023-03-02T13:41:10.634Z,98876.22
2023-03-02T13:43:36.246Z,98868.25
2023-03-02T13:45:42.187Z,98874.06
2023-03-02T13:47:49.905Z,98871.22
2023-03-02T13:49:55.036Z,98863.97
2023-03-02T13:52:08.145Z,98867.16
2023-03-02T13:54:24.461Z,98866.75
2023-03-02T13:56:33.552Z,98872.19
2023-03-02T13:58:41.230Z,98863.31
2023-03-02T14:00:46.303Z,98864.81
2023-03-02T14:02:53.789Z,98863.53
2023-03-02T14:04:59.797Z,98858.38
2023-03-02T14:07:04.769Z,98862.75
2023-03-02T14:09:09.647Z,98858.03
2023-03-02T14:11:16.569Z,98848.59
2023-03-02T14:15:59.998Z,98841.72
2023-03-02T14:18:19.068Z,98852.78
2023-03-02T14:20:24.030Z,98859.50
2023-03-02T14:22:31.982Z,98851.88
2023-03-02T14:24:37.476Z,98857.69
2023-03-02T14:26:46.372Z,98844.91
2023-03-02T14:29:04.580Z,98847.09
2023-03-02T14:31:12.745Z,98854.41
2023-03-02T14:33:20.356Z,98850.13
2023-03-02T14:35:27.644Z,98848.91
2023-03-02T14:37:32.916Z,98854.06
2023-03-02T14:39:41.197Z,98857.88
2023-03-02T14:41:53.298Z,98852.78
2023-03-02T14:43:59.460Z,98853.69
2023-03-02T14:46:05.034Z,98853.44
2023-03-02T14:48:10.043Z,98847.53
2023-03-02T14:50:19.409Z,98843.50
2023-03-02T14:52:29.607Z,98845.59
2023-03-02T14:54:43.039Z,98839.94
2023-03-02T14:56:50.563Z,98834.38
2023-03-02T14:58:56.708Z,98825.41
2023-03-02T15:01:01.953Z,98823.72
2023-03-02T15:03:07.067Z,98829.19
2023-03-02T15:05:13.214Z,98830.13
2023-03-02T15:07:22.646Z,98834.06
2023-03-02T15:09:27.635Z,98840.06
2023-03-02T15:11:33.389Z,98841.88
2023-03-02T15:13:38.467Z,98820.63
2023-03-02T15:15:45.697Z,98825.63
2023-03-02T15:17:50.629Z,98840.66
2023-03-02T15:19:56.074Z,98839.56
2023-03-02T15:22:04.217Z,98836.31
2023-03-02T15:24:11.919Z,98827.16
2023-03-02T15:26:17.949Z,98841.41
2023-03-02T15:28:22.858Z,98838.34
2023-03-02T15:30:30.778Z,98837.50
2023-03-02T15:32:35.890Z,98845.31
2023-03-02T15:34:41.350Z,98834.38
2023-03-02T15:36:46.211Z,98837.34
2023-03-02T15:38:53.233Z,98837.97
2023-03-02T15:41:01.038Z,98840.19
2023-03-02T15:43:06.342Z,98839.16
2023-03-02T15:45:12.211Z,98838.41
2023-03-02T15:47:17.295Z,98837.06
2023-03-02T15:49:24.531Z,98838.66
2023-03-02T15:51:29.550Z,98836.50
2023-03-02T15:53:38.083Z,98830.16
2023-03-02T15:55:44.404Z,98828.00
2023-03-02T15:57:51.988Z,98830.31
2023-03-02T15:59:57.198Z,98841.69
2023-03-02T16:02:02.573Z,98842.44
2023-03-02T16:04:07.536Z,98837.38
2023-03-02T16:06:13.448Z,98838.78
2023-03-02T16:08:18.477Z,98842.03
2023-03-02T16:10:27.031Z,98842.88
2023-03-02T16:12:31.929Z,98842.91
2023-03-02T16:14:42.096Z,98856.34
2023-03-02T16:16:48.443Z,98859.59
2023-03-02T16:18:54.399Z,98862.06
2023-03-02T16:20:59.328Z,98858.25
2023-03-02T16:23:06.197Z,98851.13
2023-03-02T16:25:12.367Z,98852.16
2023-03-02T16:27:17.261Z,98866.28
2023-03-02T16:29:22.522Z,98868.53
2023-03-02T16:31:33.193Z,98870.81
2023-03-02T16:33:38.865Z,98876.38
2023-03-02T16:35:43.853Z,98881.63
2023-03-02T16:37:48.743Z,98875.72
2023-03-02T16:39:53.691Z,98879.31
2023-03-02T16:41:58.606Z,98886.75
2023-03-02T16:44:03.941Z,98892.28
2023-03-02T16:46:10.166Z,98891.28
2023-03-02T16:48:17.760Z,98896.91
2023-03-02T16:50:23.067Z,98901.03
2023-03-02T16:52:29.180Z,98913.38
2023-03-02T16:54:34.841Z,98912.06
2023-03-02T16:56:41.307Z,98913.88
2023-03-02T16:58:47.208Z,98918.38
2023-03-02T17:00:52.848Z,98919.50
2023-03-02T17:02:57.770Z,98929.78
2023-03-02T17:05:06.312Z,98919.84
2023-03-02T17:07:11.968Z,98927.56
2023-03-02T17:09:17.891Z,98935.25
2023-03-02T17:11:23.477Z,98928.72
2023-03-02T17:13:28.669Z,98939.69
2023-03-02T17:15:34.077Z,98937.38
2023-03-02T17:17:39.940Z,98946.59
2023-03-02T17:19:44.885Z,98947.47
2023-03-02T17:21:52.389Z,98946.59
2023-03-02T17:23:57.579Z,98957.47
2023-03-02T17:26:02.547Z,98962.56
2023-03-02T17:28:08.546Z,98965.91
2023-03-02T17:30:15.779Z,98979.28
2023-03-02T17:32:21.037Z,98980.97
2023-03-02T17:34:28.734Z,98981.00
2023-03-02T17:36:36.733Z,98984.38
2023-03-02T17:38:45.040Z,98983.56
2023-03-02T17:40:50.182Z,98986.03
2023-03-02T17:42:57.739Z,98987.72
2023-03-02T17:45:02.855Z,98996.88
2023-03-02T17:47:08.387Z,98989.38
2023-03-02T17:49:14.150Z,98988.56
2023-03-02T17:51:20.131Z,98994.34
2023-03-02T17:53:25.006Z,98998.50
2023-03-02T17:55:34.421Z,98998.50
2023-03-02T17:57:39.705Z,99003.50
2023-03-02T17:59:45.969Z,99007.66
2023-03-02T18:01:51.161Z,99005.09
2023-03-02T18:03:56.779Z,99005.91
2023-03-02T18:06:01.688Z,99020.75
2023-03-02T18:08:07.790Z,99015.72
2023-03-02T18:10:14.254Z,99018.97
2023-03-02T18:12:21.943Z,99023.03
2023-03-02T18:14:28.481Z,99019.69
2023-03-02T18:16:35.454Z,99023.00
2023-03-02T18:18:40.569Z,99028.72
2023-03-02T18:20:45.488Z,99034.53
2023-03-02T18:22:50.384Z,99035.19
2023-03-02T18:24:55.280Z,99028.47
2023-03-02T18:27:00.296Z,99036.75
2023-03-02T18:29:08.374Z,99035.81
2023-03-02T18:31:14.374Z,99031.47
2023-03-02T18:33:19.877Z,99036.41
2023-03-02T18:35:25.394Z,99039.56
2023-03-02T18:37:30.899Z,99044.44
2023-03-02T18:39:37.662Z,99052.63
2023-03-02T18:41:43.028Z,99046.16
2023-03-02T18:43:49.146Z,99047.88
2023-03-02T18:45:57.647Z,99047.09
2023-03-02T18:48:03.583Z,99046.31
2023-03-02T18:50:10.452Z,99051.13
2023-03-02T18:52:16.653Z,99056.81
2023-03-02T18:54:21.835Z,99057.53
2023-03-02T18:56:27.647Z,99056.53
2023-03-02T18:58:34.157Z,99052.09
2023-03-02T19:00:39.069Z,99061.88
2023-03-02T19:02:46.557Z,99061.72
2023-03-02T19:04:51.430Z,99066.63
2023-03-02T19:06:57.147Z,99064.19
2023-03-02T19:09:02.241Z,99065.03
2023-03-02T19:11:08.707Z,99066.75
2023-03-02T19:13:15.597Z,99068.28
2023-03-02T19:15:20.747Z,99068.25
2023-03-02T19:17:25.965Z,99074.81
2023-03-02T19:19:35.406Z,99070.59
2023-03-02T19:21:40.361Z,99069.75
2023-03-02T19:23:46.547Z,99074.59
2023-03-02T19:25:52.701Z,99077.06
2023-03-02T19:27:57.681Z,99083.69
2023-03-02T19:30:02.784Z,99083.63
2023-03-02T19:32:11.360Z,99090.16
2023-03-02T19:34:16.329Z,99085.84
2023-03-02T19:36:24.076Z,99095.69
2023-03-02T19:38:29.241Z,99093.91
2023-03-02T19:40:34.765Z,99087.88
2023-03-02T19:42:39.955Z,99095.19
2023-03-02T19:44:44.838Z,99087.72
2023-03-02T19:46:50.018Z,99089.31
2023-03-02T19:48:54.956Z,99083.44
2023-03-02T19:51:00.591Z,99090.88
2023-03-02T19:53:09.966Z,99085.81
2023-03-02T19:55:17.237Z,99092.28
2023-03-02T19:57:22.244Z,99084.75
2023-03-02T19:59:27.584Z,99089.59
2023-03-02T20:01:32.793Z,99097.94
2023-03-02T20:03:37.684Z,99089.53
2023-03-02T20:05:43.123Z,99094.16
2023-03-02T20:07:48.770Z,99094.25
2023-03-02T20:09:56.415Z,99096.81
2023-03-02T20:12:02.857Z,99099.31
2023-03-02T20:14:07.826Z,99088.66
2023-03-02T20:16:15.264Z,99094.50
2023-03-02T20:18:22.880Z,99097.66
2023-03-02T20:20:29.115Z,99089.28
2023-03-02T20:22:35.175Z,99090.94
2023-03-02T20:24:40.409Z,99089.38
2023-03-02T20:26:47.935Z,99089.97
2023-03-02T20:28:55.615Z,99090.63
2023-03-02T20:31:04.178Z,99091.44
2023-03-02T20:33:11.401Z,99098.09
2023-03-02T20:35:16.435Z,99095.38
2023-03-02T20:37:22.642Z,99086.88
2023-03-02T20:39:32.029Z,99091.91
2023-03-02T20:41:37.863Z,99095.25
2023-03-02T20:43:46.237Z,99087.03
2023-03-02T20:45:51.230Z,99093.56
2023-03-02T20:47:57.079Z,99098.28
2023-03-02T20:50:02.956Z,99094.81
2023-03-02T20:52:10.445Z,99101.41
2023-03-02T20:54:15.378Z,99098.88
2023-03-02T20:56:21.894Z,99099.81
2023-03-02T20:58:27.108Z,99096.47
2023-03-02T21:00:37.514Z,99096.41
2023-03-02T21:02:43.016Z,99098.00
2023-03-02T21:04:48.310Z,99101.16
2023-03-02T21:06:54.695Z,99101.91
2023-03-02T21:09:00.168Z,99105.31
2023-03-02T21:11:05.129Z,99109.50
2023-03-02T21:13:11.900Z,99114.47
2023-03-02T21:15:17.541Z,99114.41
2023-03-02T21:17:25.730Z,99114.25
2023-03-02T21:19:32.625Z,99119.09
2023-03-02T21:21:41.806Z,99115.84
2023-03-02T21:23:47.513Z,99114.31
2023-03-02T21:25:52.423Z,99125.50
2023-03-02T21:27:57.896Z,99120.06
2023-03-02T21:30:04.058Z,99116.84
2023-03-02T21:32:09.856Z,99121.63
2023-03-02T21:34:19.005Z,99121.38
2023-03-02T21:36:27.487Z,99123.00
2023-03-02T21:38:32.383Z,99113.25
2023-03-02T21:40:40.763Z,99115.94
2023-03-02T21:42:45.824Z,99116.78
2023-03-02T21:44:50.867Z,99108.56
2023-03-02T21:46:55.857Z,99120.00
2023-03-02T21:49:00.922Z,99120.59
2023-03-02T21:51:09.169Z,99116.53
2023-03-02T21:53:14.311Z,99117.94
2023-03-02T21:55:20.250Z,99118.53
2023-03-02T21:57:25.148Z,99116.03
2023-03-02T21:59:30.674Z,99114.16
2023-03-02T22:01:36.348Z,99112.53
2023-03-02T22:03:41.408Z,99111.00
2023-03-02T22:05:46.851Z,99107.88
2023-03-02T22:07:54.551Z,99102.88
2023-03-02T22:09:59.449Z,99106.72
2023-03-02T22:12:04.363Z,99101.59
2023-03-02T22:14:15.003Z,99100.66
2023-03-02T22:16:22.947Z,99105.59
2023-03-02T22:18:30.354Z,99101.34
2023-03-02T22:20:35.707Z,99108.75
2023-03-02T22:22:40.587Z,99097.19
2023-03-02T22:24:52.160Z,99111.84
2023-03-02T22:27:02.165Z,99106.00
2023-03-02T22:29:16.901Z,99094.53
2023-03-02T22:31:24.759Z,99094.38
2023-03-02T22:33:32.131Z,99094.22
2023-03-02T22:35:38.201Z,99096.72
2023-03-02T22:37:43.150Z,99091.66
2023-03-02T22:39:52.231Z,99100.00
2023-03-02T22:42:06.322Z,99095.75
2023-03-02T22:44:15.298Z,99100.63
2023-03-02T22:46:22.926Z,99107.22
2023-03-02T22:48:31.699Z,99105.50
2023-03-02T22:50:36.859Z,99103.88
2023-03-02T22:52:44.616Z,99098.50
2023-03-02T22:54:52.167Z,99098.44
2023-03-02T22:56:57.230Z,99094.28
2023-03-02T22:59:10.164Z,99090.44
2023-03-02T23:01:24.523Z,99093.91
2023-03-02T23:03:40.713Z,99095.44
2023-03-02T23:05:49.329Z,99091.97
2023-03-02T23:07:56.167Z,99092.19
2023-03-02T23:10:03.602Z,99090.38
2023-03-02T23:12:18.160Z,99084.97
2023-03-02T23:14:30.167Z,99087.50
2023-03-02T23:16:38.655Z,99090.75
2023-03-02T23:18:43.829Z,99092.63
2023-03-02T23:20:49.306Z,99095.06
2023-03-02T23:22:55.110Z,99096.47
2023-03-02T23:25:00.037Z,99094.19
2023-03-02T23:27:07.743Z,99093.53
2023-03-02T23:29:13.357Z,99092.38
2023-03-02T23:31:19.287Z,99094.63
2023-03-02T23:33:24.364Z,99096.41
2023-03-02T23:35:29.683Z,99102.13
2023-03-02T23:37:34.708Z,99099.31
2023-03-02T23:39:39.727Z,99096.84
2023-03-02T23:41:44.863Z,99100.22
2023-03-02T23:43:52.451Z,99103.75
2023-03-02T23:45:57.788Z,99106.16
2023-03-02T23:48:02.795Z,99105.50
2023-03-02T23:50:10.662Z,99105.16
2023-03-02T23:52:15.648Z,99108.16
2023-03-02T23:54:20.584Z,99102.13
2023-03-02T23:56:26.132Z,99107.13
2023-03-02T23:58:31.076Z,99104.28
